D/T METAR WX W/DIR W/SPE G/SPE TEMP DEWP
6/06/20 10:50 EGXE 060950Z AUTO 31020KT 9999 SCT024/// BKN030/// 12/07 Q0990 RERA NW (310°) 23.0mph 12°C 7°C
6/06/20 09:50 EGXE 060850Z AUTO 30022G32KT 9999 BKN031/// 12/06 Q0989 RERA WNW (300°) 25.3mph 36.8mph 12°C 6°C
6/06/20 08:50 EGXE 060750Z AUTO 30020G30KT 9999 FEW035/// BKN060/// BKN100/// 12/05 Q0989 WNW (300°) 23.0mph 34.5mph 12°C 5°C
6/06/20 07:50 EGXE 060650Z AUTO 29014G25KT 9999 SCT050/// BKN090/// 10/05 Q0989 WNW (290°) 16.1mph 28.8mph 10°C 5°C
6/06/20 06:50 EGXE 060550Z AUTO 29009KT 9999 FEW050/// 10/07 Q0988 WNW (290°) 10.4mph 10°C 7°C
6/06/20 05:50 EGXE 060450Z AUTO 26011KT 9999 BKN045/// 09/07 Q0988 RERA W (260°) 12.7mph 9°C 7°C
6/06/20 04:50 EGXE 060350Z AUTO 27010KT 7000 RA BKN032/// 08/06 Q0989 RA W (270°) 11.5mph 8°C 6°C
6/06/20 03:50 EGXE 060250Z AUTO 26015KT 9999 BKN036/// 07/05 Q0989 RERA W (260°) 17.3mph 7°C 5°C
6/06/20 02:50 EGXE 060150Z AUTO 27015KT 9999 RA OVC039/// 07/05 Q0989 RA W (270°) 17.3mph 7°C 5°C
6/06/20 01:50 EGXE 060050Z AUTO 27013KT 8000 RA BKN038/// BKN048/// 07/05 Q0989 RA W (270°) 15.0mph 7°C 5°C
6/06/20 00:50 EGXE 052350Z AUTO 27014KT 9999 OVC060/// 08/03 Q0990 W (270°) 16.1mph 8°C 3°C
5/06/20 23:50 EGXE 052250Z AUTO 26014KT 9999 BKN100/// 09/02 Q0990 W (260°) 16.1mph 9°C 2°C
5/06/20 22:50 EGXE 052150Z AUTO 27016KT 9999 BKN130/// 09/01 Q0991 W (270°) 18.4mph 9°C 1°C
5/06/20 21:50 EGXE 052050Z AUTO 27010KT 9999 NCD 09/02 Q0991 W (270°) 11.5mph 9°C 2°C
5/06/20 20:50 EGXE 051950Z AUTO 28013KT 9999 NCD 10/02 Q0991 W (280°) 15.0mph 10°C 2°C
5/06/20 19:50 EGXE 051850Z AUTO 27015KT 9999 FEW060/// 11/03 Q0991 W (270°) 17.3mph 11°C 3°C
5/06/20 18:50 EGXE 051750Z AUTO 26014KT 9999 SCT045/// 13/04 Q0992 W (260°) 16.1mph 13°C 4°C
5/06/20 17:50 EGXE 051650Z AUTO 26002KT 9999 BKN050/// 12/06 Q0992 RERA W (260°) 2.3mph 12°C 6°C
5/06/20 16:50 EGXE 051550Z AUTO 27016G33KT 9999 FEW039/// BKN090/// 10/02 Q0993 W (270°) 18.4mph 38.0mph 10°C 2°C
5/06/20 15:50 EGXE 051450Z 28016KT 9999 FEW025CB SCT060 11/03 Q0993 NOSIG RMK BLU BLU W (280°) 18.4mph 11°C 3°C
5/06/20 15:20 EGXE 051420Z 28014KT 9999 FEW025CB SCT060 13/04 Q0993 TEMPO 7000 SHRA RMK BLU TEMPO WHT W (280°) 16.1mph 13°C 4°C
5/06/20 14:50 EGXE 051350Z 32006KT 9999 FEW025CB 10/06 Q0993 NOSIG RMK BLU BLU NW (320°) 6.9mph 10°C 6°C
5/06/20 14:20 EGXE 051320Z 36013KT 9999 -SHGS FEW025CB SCT060 11/02 Q0994 TEMPO 7000 SHRA RMK BLU TEMPO WHT -SHGS N (360°) 15.0mph 11°C 2°C
5/06/20 13:50 EGXE 051250Z 30015KT 9999 FEW025CB 13/03 Q0993 TEMPO 7000 SHRA RMK BLU TEMPO WHT WNW (300°) 17.3mph 13°C 3°C
5/06/20 13:20 EGXE 051220Z 27017KT 9999 FEW025CB 13/05 Q0993 TEMPO 7000 SHRA RMK BLU TEMPO WHT W (270°) 19.6mph 13°C 5°C
5/06/20 12:50 EGXE 051150Z 27013KT 9999 FEW025CB 11/06 Q0994 TEMPO 7000 SHRA RMK BLU TEMPO WHT W (270°) 15.0mph 11°C 6°C
5/06/20 12:20 EGXE 051120Z 30014KT 9999 FEW025CB SCT060 11/04 Q0994 TEMPO 7000 SHRA RMK BLU TEMPO WHT WNW (300°) 16.1mph 11°C 4°C
5/06/20 11:50 EGXE 051050Z 32010KT 9999 FEW025CB 12/06 Q0994 TEMPO 7000 SHRA RMK BLU TEMPO WHT NW (320°) 11.5mph 12°C 6°C
5/06/20 11:20 EGXE 051020Z 33009KT 9999 FEW036 SCT070 12/04 Q0994 TEMPO 7000 SHRA RMK BLU TEMPO WHT NNW (330°) 10.4mph 12°C 4°C
5/06/20 10:50 EGXE 050950Z 33012KT 9999 FEW036 12/03 Q0994 TEMPO 7000 SHRA RMK BLU TEMPO WHT NNW (330°) 13.8mph 12°C 3°C
5/06/20 10:20 EGXE 050920Z 33013KT 9999 FEW028 11/03 Q0994 NOSIG RMK BLU BLU NNW (330°) 15.0mph 11°C 3°C
5/06/20 09:50 EGXE 050850Z 32014KT 9999 FEW032 11/03 Q0994 NOSIG RMK BLU BLU NW (320°) 16.1mph 11°C 3°C
5/06/20 09:21 EGXE 050821Z 32014KT 9999 FEW028 09/03 Q0994 NOSIG RMK BLU BLU NW (320°) 16.1mph 9°C 3°C
5/06/20 08:50 EGXE 050750Z 30012KT 9999 FEW024 BKN100 09/04 Q0994 NOSIG RMK BLU BLU WNW (300°) 13.8mph 9°C 4°C
5/06/20 08:00 EGXE 050700Z 30010KT 9999 FEW020 SCT045 BKN120 09/05 Q0995 RMK BLU WNW (300°) 11.5mph 9°C 5°C
5/06/20 06:50 EGXE 050550Z AUTO 31007KT 9999 BKN050/// 08/05 Q0995 NW (310°) 8.1mph 8°C 5°C
5/06/20 05:50 EGXE 050450Z AUTO 30007KT 9999 BKN070/// BKN120/// 07/05 Q0995 RERA WNW (300°) 8.1mph 7°C 5°C
5/06/20 04:50 EGXE 050350Z AUTO 31005KT 9999 BKN050/// 07/06 Q0995 RERA NW (310°) 5.8mph 7°C 6°C
5/06/20 03:50 EGXE 050250Z AUTO 33007KT 9999 FEW027/// BKN050/// 07/06 Q0995 RERA NNW (330°) 8.1mph 7°C 6°C
5/06/20 02:50 EGXE 050150Z AUTO 34007KT 6000 RA FEW006/// BKN037/// 07/07 Q0996 RA NNW (340°) 8.1mph 7°C 7°C
5/06/20 01:50 EGXE 050050Z AUTO 34007KT 9999 -RA BKN005/// SCT033/// 07/07 Q0996 -RA NNW (340°) 8.1mph 7°C 7°C
5/06/20 00:50 EGXE 042350Z AUTO 01010KT 9000 -RA FEW003/// BKN009/// 07/06 Q0996 -RA N (10°) 11.5mph 7°C 6°C
4/06/20 23:50 EGXE 042250Z AUTO 04001KT 2600 RA SCT003/// BKN015/// 09/08 Q0996 RA NE (40°) 1.2mph 9°C 8°C
4/06/20 22:50 EGXE 042150Z AUTO 32003KT 2300 RA BKN011/// 09/08 Q0997 RA NW (320°) 3.5mph 9°C 8°C
4/06/20 21:50 EGXE 042050Z AUTO 19001KT 9999 FEW006/// BKN013/// 10/08 Q0997 RERA S (190°) 1.2mph 10°C 8°C
4/06/20 20:50 EGXE 041950Z AUTO 02002KT 9999 -RA BKN011/// SCT050/// 10/09 Q0998 -RA NNE (20°) 2.3mph 10°C 9°C
4/06/20 19:50 EGXE 041850Z AUTO 27002KT 9999 -RA FEW010/// BKN042/// BKN048/// 10/09 Q0998 -RA W (270°) 2.3mph 10°C 9°C
4/06/20 18:50 EGXE 041750Z AUTO 26003KT 9000 -RA FEW026/// BKN042/// 11/09 Q0998 -RA W (260°) 3.5mph 11°C 9°C
4/06/20 17:50 EGXE 041650Z AUTO 15001KT 9999 FEW032/// BKN045/// 13/06 Q0999 RERA SSE (150°) 1.2mph 13°C 6°C
4/06/20 16:50 EGXE 041550Z 36005KT 9999 -SHRA FEW028 BKN060 13/07 Q0999 NOSIG RMK BLU BLU -SHRA N (360°) 5.8mph 13°C 7°C
4/06/20 16:20 EGXE 041520Z 02006KT 9999 FEW028 BKN060 12/07 Q1000 NOSIG RMK BLU BLU NNE (20°) 6.9mph 12°C 7°C
4/06/20 15:50 EGXE 041450Z 03009KT 9999 FEW028 BKN060 13/07 Q1000 NOSIG RMK BLU BLU NNE (30°) 10.4mph 13°C 7°C
4/06/20 15:20 EGXE 041420Z 32007KT 9999 FEW030 BKN070 13/06 Q1000 NOSIG RMK BLU BLU NW (320°) 8.1mph 13°C 6°C
4/06/20 14:50 EGXE 041350Z 28005KT 9999 -SHRA FEW030 BKN080 13/06 Q1001 NOSIG RMK BLU BLU -SHRA W (280°) 5.8mph 13°C 6°C
4/06/20 14:22 EGXE 041322Z 27006KT 9999 FEW030 BKN080 13/06 Q1001 NOSIG RMK BLU BLU W (270°) 6.9mph 13°C 6°C
4/06/20 13:50 EGXE 041250Z 26005KT 9999 FEW028 BKN090 14/06 Q1001 NOSIG RMK BLU BLU W (260°) 5.8mph 14°C 6°C
4/06/20 13:20 EGXE 041220Z 19004KT 9999 FEW026 BKN100 14/07 Q1001 TEMPO 7000 SHRA SCT024 RMK BLU TEMPO WHT S (190°) 4.6mph 14°C 7°C
4/06/20 12:50 EGXE 041150Z 14003KT 9999 SCT026 BKN100 12/05 Q1002 NOSIG RMK BLU BLU SE (140°) 3.5mph 12°C 5°C
4/06/20 12:20 EGXE 041120Z 22005KT 9999 FEW026 SCT040 BKN100 12/05 Q1003 NOSIG RMK BLU BLU SW (220°) 5.8mph 12°C 5°C
4/06/20 11:50 EGXE 041050Z 03002KT 9999 FEW024 SCT032 BKN044 11/05 Q1003 NOSIG RMK BLU BLU NNE (30°) 2.3mph 11°C 5°C
4/06/20 11:21 EGXE 041021Z 23003KT 9999 FEW024 OVC034 11/06 Q1003 NOSIG RMK BLU BLU SW (230°) 3.5mph 11°C 6°C
4/06/20 10:50 EGXE 040950Z 30003KT 9999 FEW026 OVC035 10/05 Q1003 NOSIG RMK BLU BLU WNW (300°) 3.5mph 10°C 5°C
4/06/20 10:20 EGXE 040920Z 28004KT 9999 -SHRA FEW024 BKN036 OVC080 10/05 Q1004 NOSIG RMK BLU BLU -SHRA W (280°) 4.6mph 10°C 5°C
4/06/20 09:50 EGXE 040850Z 35005KT 9999 FEW024 BKN034 OVC120 10/04 Q1004 NOSIG RMK BLU BLU N (350°) 5.8mph 10°C 4°C
4/06/20 09:20 EGXE 040820Z 29005KT 9999 FEW020 BKN037 OVC120 10/05 Q1004 NOSIG RMK BLU BLU WNW (290°) 5.8mph 10°C 5°C
4/06/20 08:50 EGXE 040750Z 29006KT 9999 FEW020 BKN040 OVC120 10/06 Q1004 RMK BLU WNW (290°) 6.9mph 10°C 6°C
4/06/20 07:50 EGXE 040650Z 28005KT 9999 FEW016 SCT035 BKN060 09/06 Q1005 RMK BLU W (280°) 5.8mph 9°C 6°C
4/06/20 06:50 EGXE 040550Z AUTO 26005KT 9999 BKN050/// OVC120/// 08/05 Q1006 W (260°) 5.8mph 8°C 5°C
4/06/20 05:50 EGXE 040450Z AUTO 30006KT 9999 BKN050/// BKN130/// 08/05 Q1006 WNW (300°) 6.9mph 8°C 5°C
4/06/20 04:50 EGXE 040350Z AUTO 28006KT 9999 BKN050/// BKN140/// 08/05 Q1007 W (280°) 6.9mph 8°C 5°C
4/06/20 03:50 EGXE 040250Z AUTO 31006KT 9999 BKN050/// OVC150/// 08/05 Q1007 NW (310°) 6.9mph 8°C 5°C
4/06/20 02:50 EGXE 040150Z AUTO 30007KT 9999 FEW060/// BKN170/// 07/06 Q1008 WNW (300°) 8.1mph 7°C 6°C
4/06/20 01:50 EGXE 040050Z AUTO 33008KT 9999 BKN060/// BKN180/// 08/06 Q1009 NNW (330°) 9.2mph 8°C 6°C
4/06/20 00:50 EGXE 032350Z AUTO 33009KT 9999 FEW039/// BKN050/// 09/07 Q1010 NNW (330°) 10.4mph 9°C 7°C
3/06/20 23:50 EGXE 032250Z AUTO 33010KT 9999 SCT016/// BKN032/// 09/07 Q1010 NNW (330°) 11.5mph 9°C 7°C
3/06/20 22:50 EGXE 032150Z AUTO 33009KT 9999 SCT009/// BKN016/// 09/08 Q1011 REDZ NNW (330°) 10.4mph 9°C 8°C
3/06/20 21:50 EGXE 032050Z AUTO 35012KT 9999 -DZ BKN015/// 09/08 Q1011 -DZ N (350°) 13.8mph 9°C 8°C
3/06/20 20:50 EGXE 031950Z AUTO 34010KT 9999 BKN038/// 10/08 Q1011 RERA NNW (340°) 11.5mph 10°C 8°C
3/06/20 19:50 EGXE 031850Z AUTO 35011KT 9999 FEW042/// 12/06 Q1011 N (350°) 12.7mph 12°C 6°C
3/06/20 18:50 EGXE 031750Z AUTO 35010KT 9999 SCT026/// BKN042/// 13/07 Q1011 N (350°) 11.5mph 13°C 7°C
3/06/20 17:50 EGXE 031650Z AUTO 34011KT 9999 SCT027/// OVC035/// 12/05 Q1012 NNW (340°) 12.7mph 12°C 5°C
3/06/20 16:50 EGXE 031550Z AUTO 36014KT 9999 FEW023/// BKN028/// BKN040/// 12/06 Q1012 N (360°) 16.1mph 12°C 6°C
3/06/20 15:50 EGXE 031450Z AUTO 01013KT 9999 BKN022/// BKN027/// 11/06 Q1013 N (10°) 15.0mph 11°C 6°C
3/06/20 14:50 EGXE 031350Z AUTO 36016KT 9999 OVC014/// 11/07 Q1013 N (360°) 18.4mph 11°C 7°C
3/06/20 13:50 EGXE 031250Z AUTO 35016KT 9999 OVC011/// 10/08 Q1013 REDZ N (350°) 18.4mph 10°C 8°C
3/06/20 12:50 EGXE 031150Z 36017KT 9999 -RADZ OVC012 11/09 Q1013 BECMG BKN015 RMK GRN BECMG WHT -RA -DZ N (360°) 19.6mph 11°C 9°C
3/06/20 12:20 EGXE 031120Z 36016KT 9999 OVC012 10/08 Q1013 BECMG BKN015 RMK GRN BECMG WHT N (360°) 18.4mph 10°C 8°C
3/06/20 11:50 EGXE 031050Z 36016KT 9999 -RADZ BKN009 OVC020 11/09 Q1013 BECMG BKN015 RMK GRN BECMG WHT -RA -DZ N (360°) 18.4mph 11°C 9°C
3/06/20 11:20 EGXE 031020Z 36016KT 5000 -RADZ BKN008 OVC018 11/10 Q1013 TEMPO 9999 NSW RMK GRN TEMPO GRN -RA -DZ N (360°) 18.4mph 11°C 10°C
3/06/20 09:50 EGXE 030850Z 36014KT 9999 -RA BKN009 OVC018 11/10 Q1013 NOSIG RMK GRN GRN -RA N (360°) 16.1mph 11°C 10°C
3/06/20 09:20 EGXE 030820Z 36012KT 7000 -RA BKN007 OVC015 11/10 Q1013 TEMPO BKN006 RMK GRN TEMPO YLO1 -RA N (360°) 13.8mph 11°C 10°C
3/06/20 08:50 EGXE 030750Z 36016KT 7000 -RA BKN007 OVC015 11/10 Q1013 TEMPO BKN006 RMK GRN TEMPO YLO1 -RA N (360°) 18.4mph 11°C 10°C
3/06/20 08:20 EGXE 030720Z 36014KT 8000 -RA OVC008 11/10 Q1013 TEMPO 7000 RA SCT006 RMK GRN TEMPO YLO1 -RA N (360°) 16.1mph 11°C 10°C
3/06/20 07:50 EGXE 030650Z 36014KT 9999 -RA FEW005 BKN008 OVC018 11/10 Q1013 TEMPO 7000 RA SCT006 RMK GRN TEMPO YLO1 -RA N (360°) 16.1mph 11°C 10°C
3/06/20 06:50 EGXE 030550Z AUTO 36008KT 8000 -RA BKN006/// SCT028/// 11/10 Q1012 -RA N (360°) 9.2mph 11°C 10°C
3/06/20 05:50 EGXE 030450Z AUTO 01012KT 6000 RA SCT006/// SCT016/// BKN020/// 11/10 Q1012 RA N (10°) 13.8mph 11°C 10°C